sensor_id;sensor_type;location;lat;lon;timestamp;temperature;humidity
8400;DHT22;4237;47.030;15.396;2023-02-19T00:02:01;1.70;99.90
8400;DHT22;4237;47.030;15.396;2023-02-19T00:04:30;1.60;99.90
8400;DHT22;4237;47.030;15.396;2023-02-19T00:06:58;1.60;99.90
8400;DHT22;4237;47.030;15.396;2023-02-19T00:09:27;1.60;99.90
8400;DHT22;4237;47.030;15.396;2023-02-19T00:11:56;1.60;99.90
8400;DHT22;4237;47.030;15.396;2023-02-19T00:14:24;1.60;99.90
8400;DHT22;4237;47.030;15.396;2023-02-19T00:16:53;1.60;99.90
8400;DHT22;4237;47.030;15.396;2023-02-19T00:19:21;1.70;99.90
8400;DHT22;4237;47.030;15.396;2023-02-19T00:21:51;1.70;99.90
8400;DHT22;4237;47.030;15.396;2023-02-19T00:24:21;1.60;99.90
8400;DHT22;4237;47.030;15.396;2023-02-19T00:26:50;1.50;99.90
8400;DHT22;4237;47.030;15.396;2023-02-19T00:29:20;1.50;99.90
8400;DHT22;4237;47.030;15.396;2023-02-19T00:31:49;1.40;99.90
8400;DHT22;4237;47.030;15.396;2023-02-19T00:34:18;1.40;99.90
8400;DHT22;4237;47.030;15.396;2023-02-19T00:36:46;1.50;99.90
8400;DHT22;4237;47.030;15.396;2023-02-19T00:39:16;1.50;99.90
8400;DHT22;4237;47.030;15.396;2023-02-19T00:41:45;1.60;99.90
8400;DHT22;4237;47.030;15.396;2023-02-19T00:44:14;1.60;99.90
8400;DHT22;4237;47.030;15.396;2023-02-19T00:46:46;1.60;99.90
8400;DHT22;4237;47.030;15.396;2023-02-19T00:49:24;1.50;99.90
8400;DHT22;4237;47.030;15.396;2023-02-19T00:51:50;1.50;99.90
8400;DHT22;4237;47.030;15.396;2023-02-19T00:54:20;1.50;99.90
8400;DHT22;4237;47.030;15.396;2023-02-19T00:56:52;1.50;99.90
8400;DHT22;4237;47.030;15.396;2023-02-19T00:59:20;1.50;99.90
8400;DHT22;4237;47.030;15.396;2023-02-19T01:01:49;1.60;99.90
8400;DHT22;4237;47.030;15.396;2023-02-19T01:04:17;1.60;99.90
8400;DHT22;4237;47.030;15.396;2023-02-19T01:06:46;1.50;99.90
8400;DHT22;4237;47.030;15.396;2023-02-19T01:09:15;1.60;99.90
8400;DHT22;4237;47.030;15.396;2023-02-19T01:11:44;1.60;99.90
8400;DHT22;4237;47.030;15.396;2023-02-19T01:14:12;1.60;99.90
8400;DHT22;4237;47.030;15.396;2023-02-19T01:16:41;1.60;99.90
8400;DHT22;4237;47.030;15.396;2023-02-19T01:19:10;1.60;99.90
8400;DHT22;4237;47.030;15.396;2023-02-19T01:21:39;1.60;99.90
8400;DHT22;4237;47.030;15.396;2023-02-19T01:24:08;1.60;99.90
8400;DHT22;4237;47.030;15.396;2023-02-19T01:26:37;1.60;99.90
8400;DHT22;4237;47.030;15.396;2023-02-19T01:29:06;1.60;99.90
8400;DHT22;4237;47.030;15.396;2023-02-19T01:31:34;1.60;99.90
8400;DHT22;4237;47.030;15.396;2023-02-19T01:34:04;1.60;99.90
8400;DHT22;4237;47.030;15.396;2023-02-19T01:36:33;1.60;99.90
8400;DHT22;4237;47.030;15.396;2023-02-19T01:39:05;1.70;99.90
8400;DHT22;4237;47.030;15.396;2023-02-19T01:41:36;1.70;99.90
8400;DHT22;4237;47.030;15.396;2023-02-19T01:46:41;1.70;99.90
8400;DHT22;4237;47.030;15.396;2023-02-19T01:49:32;1.80;99.90
8400;DHT22;4237;47.030;15.396;2023-02-19T01:52:21;1.70;99.90
8400;DHT22;4237;47.030;15.396;2023-02-19T01:54:52;1.80;99.90
8400;DHT22;4237;47.030;15.396;2023-02-19T01:57:29;1.80;99.90
8400;DHT22;4237;47.030;15.396;2023-02-19T01:59:56;1.80;99.90
8400;DHT22;4237;47.030;15.396;2023-02-19T02:02:25;1.90;99.90
8400;DHT22;4237;47.030;15.396;2023-02-19T02:04:56;2.00;99.90
8400;DHT22;4237;47.030;15.396;2023-02-19T02:07:26;2.00;99.90
8400;DHT22;4237;47.030;15.396;2023-02-19T02:10:13;2.00;99.90
8400;DHT22;4237;47.030;15.396;2023-02-19T02:12:49;2.00;99.90
8400;DHT22;4237;47.030;15.396;2023-02-19T02:15:18;2.00;99.90
8400;DHT22;4237;47.030;15.396;2023-02-19T02:17:51;2.00;99.90
8400;DHT22;4237;47.030;15.396;2023-02-19T02:20:32;1.90;99.90
8400;DHT22;4237;47.030;15.396;2023-02-19T02:23:23;1.90;99.90
8400;DHT22;4237;47.030;15.396;2023-02-19T02:26:08;1.80;99.90
8400;DHT22;4237;47.030;15.396;2023-02-19T02:31:42;1.80;99.90
8400;DHT22;4237;47.030;15.396;2023-02-19T02:34:08;1.80;99.90
8400;DHT22;4237;47.030;15.396;2023-02-19T02:36:43;1.90;99.90
8400;DHT22;4237;47.030;15.396;2023-02-19T02:39:10;2.10;99.90
8400;DHT22;4237;47.030;15.396;2023-02-19T02:41:50;2.20;99.90
8400;DHT22;4237;47.030;15.396;2023-02-19T02:44:21;2.30;99.90
8400;DHT22;4237;47.030;15.396;2023-02-19T02:46:50;2.20;99.90
8400;DHT22;4237;47.030;15.396;2023-02-19T02:49:22;2.20;99.90
8400;DHT22;4237;47.030;15.396;2023-02-19T02:51:52;2.20;99.90
8400;DHT22;4237;47.030;15.396;2023-02-19T02:54:26;2.20;99.90
8400;DHT22;4237;47.030;15.396;2023-02-19T02:56:59;2.20;99.90
8400;DHT22;4237;47.030;15.396;2023-02-19T02:59:30;2.10;99.90
8400;DHT22;4237;47.030;15.396;2023-02-19T03:02:05;2.10;99.90
8400;DHT22;4237;47.030;15.396;2023-02-19T03:07:52;2.40;99.90
8400;DHT22;4237;47.030;15.396;2023-02-19T03:10:30;2.30;99.90
8400;DHT22;4237;47.030;15.396;2023-02-19T03:12:55;2.20;99.90
8400;DHT22;4237;47.030;15.396;2023-02-19T03:15:46;2.20;99.90
8400;DHT22;4237;47.030;15.396;2023-02-19T03:18:33;2.20;99.90
8400;DHT22;4237;47.030;15.396;2023-02-19T03:21:21;2.20;99.90
8400;DHT22;4237;47.030;15.396;2023-02-19T03:23:53;2.20;99.90
8400;DHT22;4237;47.030;15.396;2023-02-19T03:26:42;2.10;99.90
8400;DHT22;4237;47.030;15.396;2023-02-19T03:29:13;2.10;99.90
8400;DHT22;4237;47.030;15.396;2023-02-19T03:31:55;2.00;99.90
8400;DHT22;4237;47.030;15.396;2023-02-19T03:34:34;2.00;99.90
8400;DHT22;4237;47.030;15.396;2023-02-19T03:37:05;2.00;99.90
8400;DHT22;4237;47.030;15.396;2023-02-19T03:39:32;2.00;99.90
8400;DHT22;4237;47.030;15.396;2023-02-19T03:42:10;1.90;99.90
8400;DHT22;4237;47.030;15.396;2023-02-19T03:44:52;1.90;99.90
8400;DHT22;4237;47.030;15.396;2023-02-19T03:50:01;1.80;99.90
8400;DHT22;4237;47.030;15.396;2023-02-19T03:52:35;1.80;99.90
8400;DHT22;4237;47.030;15.396;2023-02-19T03:57:53;1.80;99.90
8400;DHT22;4237;47.030;15.396;2023-02-19T04:00:26;1.80;99.90
8400;DHT22;4237;47.030;15.396;2023-02-19T04:03:26;1.70;99.90
8400;DHT22;4237;47.030;15.396;2023-02-19T04:05:35;1.70;99.90
8400;DHT22;4237;47.030;15.396;2023-02-19T04:08:09;1.60;99.90
8400;DHT22;4237;47.030;15.396;2023-02-19T04:10:39;1.50;99.90
8400;DHT22;4237;47.030;15.396;2023-02-19T04:13:12;1.50;99.90
8400;DHT22;4237;47.030;15.396;2023-02-19T04:15:42;1.50;99.90
8400;DHT22;4237;47.030;15.396;2023-02-19T04:18:21;1.60;99.90
8400;DHT22;4237;47.030;15.396;2023-02-19T04:20:47;1.70;99.90
8400;DHT22;4237;47.030;15.396;2023-02-19T04:23:18;1.70;99.90
8400;DHT22;4237;47.030;15.396;2023-02-19T04:25:49;1.60;99.90
8400;DHT22;4237;47.030;15.396;2023-02-19T04:28:19;1.60;99.90
8400;DHT22;4237;47.030;15.396;2023-02-19T04:30:48;1.50;99.90
8400;DHT22;4237;47.030;15.396;2023-02-19T04:33:16;1.60;99.90
8400;DHT22;4237;47.030;15.396;2023-02-19T04:35:45;1.60;99.90
8400;DHT22;4237;47.030;15.396;2023-02-19T04:38:14;1.70;99.90
8400;DHT22;4237;47.030;15.396;2023-02-19T04:40:42;1.70;99.90
8400;DHT22;4237;47.030;15.396;2023-02-19T04:43:11;1.70;99.90
8400;DHT22;4237;47.030;15.396;2023-02-19T04:45:39;1.60;99.90
8400;DHT22;4237;47.030;15.396;2023-02-19T04:48:09;1.60;99.90
8400;DHT22;4237;47.030;15.396;2023-02-19T04:50:39;1.60;99.90
8400;DHT22;4237;47.030;15.396;2023-02-19T04:53:08;1.60;99.90
8400;DHT22;4237;47.030;15.396;2023-02-19T04:55:37;1.60;99.90
8400;DHT22;4237;47.030;15.396;2023-02-19T04:58:06;1.70;99.90
8400;DHT22;4237;47.030;15.396;2023-02-19T05:00:35;1.70;99.90
8400;DHT22;4237;47.030;15.396;2023-02-19T05:03:04;1.70;99.90
8400;DHT22;4237;47.030;15.396;2023-02-19T05:05:33;1.70;99.90
8400;DHT22;4237;47.030;15.396;2023-02-19T05:08:02;1.70;99.90
8400;DHT22;4237;47.030;15.396;2023-02-19T05:10:30;1.70;99.90
8400;DHT22;4237;47.030;15.396;2023-02-19T05:13:00;1.80;99.90
8400;DHT22;4237;47.030;15.396;2023-02-19T05:15:28;1.80;99.90
8400;DHT22;4237;47.030;15.396;2023-02-19T05:17:57;1.90;99.90
8400;DHT22;4237;47.030;15.396;2023-02-19T05:20:26;2.00;99.90
8400;DHT22;4237;47.030;15.396;2023-02-19T05:22:54;2.10;99.90
8400;DHT22;4237;47.030;15.396;2023-02-19T05:25:23;2.30;99.90
8400;DHT22;4237;47.030;15.396;2023-02-19T05:27:51;2.30;99.90
8400;DHT22;4237;47.030;15.396;2023-02-19T05:30:22;2.40;99.90
8400;DHT22;4237;47.030;15.396;2023-02-19T05:32:51;2.40;99.90
8400;DHT22;4237;47.030;15.396;2023-02-19T05:35:19;2.40;99.90
8400;DHT22;4237;47.030;15.396;2023-02-19T05:37:48;2.40;99.90
8400;DHT22;4237;47.030;15.396;2023-02-19T05:40:18;2.40;99.90
8400;DHT22;4237;47.030;15.396;2023-02-19T05:42:46;2.50;99.90
8400;DHT22;4237;47.030;15.396;2023-02-19T05:45:15;2.50;99.90
8400;DHT22;4237;47.030;15.396;2023-02-19T05:47:43;2.50;99.90
8400;DHT22;4237;47.030;15.396;2023-02-19T05:50:12;2.60;99.90
8400;DHT22;4237;47.030;15.396;2023-02-19T05:52:41;2.60;99.90
8400;DHT22;4237;47.030;15.396;2023-02-19T05:55:11;2.60;99.90
8400;DHT22;4237;47.030;15.396;2023-02-19T05:57:42;2.70;99.90
8400;DHT22;4237;47.030;15.396;2023-02-19T06:00:16;2.70;99.90
8400;DHT22;4237;47.030;15.396;2023-02-19T06:02:45;2.70;99.90
8400;DHT22;4237;47.030;15.396;2023-02-19T06:05:14;2.80;99.90
8400;DHT22;4237;47.030;15.396;2023-02-19T06:07:43;2.80;99.90
8400;DHT22;4237;47.030;15.396;2023-02-19T06:10:12;2.80;99.90
8400;DHT22;4237;47.030;15.396;2023-02-19T06:12:41;2.80;99.90
8400;DHT22;4237;47.030;15.396;2023-02-19T06:15:09;2.80;99.90
8400;DHT22;4237;47.030;15.396;2023-02-19T06:17:38;2.90;99.90
8400;DHT22;4237;47.030;15.396;2023-02-19T06:20:07;2.90;99.90
8400;DHT22;4237;47.030;15.396;2023-02-19T06:22:36;2.90;99.90
8400;DHT22;4237;47.030;15.396;2023-02-19T06:25:05;2.90;99.90
8400;DHT22;4237;47.030;15.396;2023-02-19T06:27:35;2.90;99.90
8400;DHT22;4237;47.030;15.396;2023-02-19T06:30:05;2.90;99.90
8400;DHT22;4237;47.030;15.396;2023-02-19T06:32:34;3.00;99.90
8400;DHT22;4237;47.030;15.396;2023-02-19T06:35:03;2.90;99.90
8400;DHT22;4237;47.030;15.396;2023-02-19T06:37:31;3.00;99.90
8400;DHT22;4237;47.030;15.396;2023-02-19T06:40:00;3.10;99.90
8400;DHT22;4237;47.030;15.396;2023-02-19T06:42:30;3.20;99.90
8400;DHT22;4237;47.030;15.396;2023-02-19T06:45:00;3.30;99.90
8400;DHT22;4237;47.030;15.396;2023-02-19T06:47:32;3.40;99.90
8400;DHT22;4237;47.030;15.396;2023-02-19T06:50:01;3.40;99.90
8400;DHT22;4237;47.030;15.396;2023-02-19T06:52:29;3.40;99.90
8400;DHT22;4237;47.030;15.396;2023-02-19T06:54:58;3.50;99.90
8400;DHT22;4237;47.030;15.396;2023-02-19T06:57:26;3.50;99.90
8400;DHT22;4237;47.030;15.396;2023-02-19T06:59:55;3.70;99.90
8400;DHT22;4237;47.030;15.396;2023-02-19T07:02:23;3.80;99.90
8400;DHT22;4237;47.030;15.396;2023-02-19T07:04:53;3.90;99.90
8400;DHT22;4237;47.030;15.396;2023-02-19T07:07:21;4.00;99.90
8400;DHT22;4237;47.030;15.396;2023-02-19T07:09:50;4.10;99.90
8400;DHT22;4237;47.030;15.396;2023-02-19T07:12:18;4.20;99.90
8400;DHT22;4237;47.030;15.396;2023-02-19T07:14:47;4.30;99.90
8400;DHT22;4237;47.030;15.396;2023-02-19T07:17:15;4.40;99.90
8400;DHT22;4237;47.030;15.396;2023-02-19T07:19:44;4.40;99.90
8400;DHT22;4237;47.030;15.396;2023-02-19T07:22:13;4.60;99.90
8400;DHT22;4237;47.030;15.396;2023-02-19T07:24:41;4.80;99.90
8400;DHT22;4237;47.030;15.396;2023-02-19T07:27:10;4.80;99.90
8400;DHT22;4237;47.030;15.396;2023-02-19T07:29:38;4.90;99.90
8400;DHT22;4237;47.030;15.396;2023-02-19T07:32:07;4.90;99.90
8400;DHT22;4237;47.030;15.396;2023-02-19T07:34:36;5.00;99.90
8400;DHT22;4237;47.030;15.396;2023-02-19T07:37:05;5.00;99.90
8400;DHT22;4237;47.030;15.396;2023-02-19T07:39:33;4.80;99.90
8400;DHT22;4237;47.030;15.396;2023-02-19T07:42:02;4.80;99.90
8400;DHT22;4237;47.030;15.396;2023-02-19T07:44:30;4.90;99.90
8400;DHT22;4237;47.030;15.396;2023-02-19T07:47:00;4.90;99.90
8400;DHT22;4237;47.030;15.396;2023-02-19T07:49:28;5.00;99.90
8400;DHT22;4237;47.030;15.396;2023-02-19T07:51:57;5.10;99.90
8400;DHT22;4237;47.030;15.396;2023-02-19T07:54:26;5.20;99.90
8400;DHT22;4237;47.030;15.396;2023-02-19T07:56:55;5.20;99.90
8400;DHT22;4237;47.030;15.396;2023-02-19T07:59:24;5.20;99.90
8400;DHT22;4237;47.030;15.396;2023-02-19T08:01:52;5.30;99.90
8400;DHT22;4237;47.030;15.396;2023-02-19T08:04:38;5.60;99.90
8400;DHT22;4237;47.030;15.396;2023-02-19T08:07:07;5.80;99.90
8400;DHT22;4237;47.030;15.396;2023-02-19T08:09:36;6.10;99.90
8400;DHT22;4237;47.030;15.396;2023-02-19T08:12:05;6.40;99.90
8400;DHT22;4237;47.030;15.396;2023-02-19T08:14:52;6.60;99.90
8400;DHT22;4237;47.030;15.396;2023-02-19T08:17:20;6.30;99.90
8400;DHT22;4237;47.030;15.396;2023-02-19T08:19:49;6.40;99.90
8400;DHT22;4237;47.030;15.396;2023-02-19T08:22:17;6.50;99.90
8400;DHT22;4237;47.030;15.396;2023-02-19T08:24:46;6.60;99.90
8400;DHT22;4237;47.030;15.396;2023-02-19T08:27:14;6.90;99.90
8400;DHT22;4237;47.030;15.396;2023-02-19T08:29:43;7.20;99.90
8400;DHT22;4237;47.030;15.396;2023-02-19T08:32:11;6.90;99.90
8400;DHT22;4237;47.030;15.396;2023-02-19T08:34:40;6.60;99.90
8400;DHT22;4237;47.030;15.396;2023-02-19T08:37:09;7.00;99.90
8400;DHT22;4237;47.030;15.396;2023-02-19T08:39:37;7.30;99.90
8400;DHT22;4237;47.030;15.396;2023-02-19T08:42:06;7.70;99.90
8400;DHT22;4237;47.030;15.396;2023-02-19T08:44:34;8.10;99.90
8400;DHT22;4237;47.030;15.396;2023-02-19T08:47:03;8.30;99.90
8400;DHT22;4237;47.030;15.396;2023-02-19T08:49:32;8.70;99.90
8400;DHT22;4237;47.030;15.396;2023-02-19T08:52:00;8.80;99.90
8400;DHT22;4237;47.030;15.396;2023-02-19T08:54:29;9.20;99.90
8400;DHT22;4237;47.030;15.396;2023-02-19T08:56:58;9.40;99.90
8400;DHT22;4237;47.030;15.396;2023-02-19T08:59:28;9.30;99.90
8400;DHT22;4237;47.030;15.396;2023-02-19T09:01:59;9.50;99.90
8400;DHT22;4237;47.030;15.396;2023-02-19T09:04:28;9.80;99.90
8400;DHT22;4237;47.030;15.396;2023-02-19T09:06:57;9.90;99.90
8400;DHT22;4237;47.030;15.396;2023-02-19T09:09:25;10.30;99.90
8400;DHT22;4237;47.030;15.396;2023-02-19T09:11:54;11.80;99.90
8400;DHT22;4237;47.030;15.396;2023-02-19T09:14:23;14.10;99.90
8400;DHT22;4237;47.030;15.396;2023-02-19T09:16:51;15.80;99.90
8400;DHT22;4237;47.030;15.396;2023-02-19T09:19:21;17.60;99.90
8400;DHT22;4237;47.030;15.396;2023-02-19T09:21:50;19.80;99.90
8400;DHT22;4237;47.030;15.396;2023-02-19T09:24:19;21.60;99.90
8400;DHT22;4237;47.030;15.396;2023-02-19T09:26:49;23.50;99.90
8400;DHT22;4237;47.030;15.396;2023-02-19T09:29:19;24.90;97.90
8400;DHT22;4237;47.030;15.396;2023-02-19T09:31:48;25.90;95.50
8400;DHT22;4237;47.030;15.396;2023-02-19T09:34:17;26.50;92.90
8400;DHT22;4237;47.030;15.396;2023-02-19T09:36:48;27.70;91.50
8400;DHT22;4237;47.030;15.396;2023-02-19T09:39:17;26.80;90.50
8400;DHT22;4237;47.030;15.396;2023-02-19T09:41:56;25.90;91.40
8400;DHT22;4237;47.030;15.396;2023-02-19T09:44:34;26.20;91.40
8400;DHT22;4237;47.030;15.396;2023-02-19T09:47:06;26.10;90.80
8400;DHT22;4237;47.030;15.396;2023-02-19T09:49:43;25.50;92.60
8400;DHT22;4237;47.030;15.396;2023-02-19T09:52:26;24.40;92.90
8400;DHT22;4237;47.030;15.396;2023-02-19T09:54:56;25.90;92.80
8400;DHT22;4237;47.030;15.396;2023-02-19T09:57:28;26.30;91.70
8400;DHT22;4237;47.030;15.396;2023-02-19T10:00:06;26.80;89.20
8400;DHT22;4237;47.030;15.396;2023-02-19T10:02:35;28.40;84.10
8400;DHT22;4237;47.030;15.396;2023-02-19T10:05:15;28.20;80.50
8400;DHT22;4237;47.030;15.396;2023-02-19T10:07:46;27.50;82.50
8400;DHT22;4237;47.030;15.396;2023-02-19T10:10:19;27.30;83.20
8400;DHT22;4237;47.030;15.396;2023-02-19T10:12:53;28.40;81.40
8400;DHT22;4237;47.030;15.396;2023-02-19T10:15:28;29.30;80.40
8400;DHT22;4237;47.030;15.396;2023-02-19T10:17:56;29.50;78.50
8400;DHT22;4237;47.030;15.396;2023-02-19T10:20:25;29.70;76.30
8400;DHT22;4237;47.030;15.396;2023-02-19T10:23:00;29.20;77.90
8400;DHT22;4237;47.030;15.396;2023-02-19T10:25:31;30.90;77.20
8400;DHT22;4237;47.030;15.396;2023-02-19T10:28:02;31.90;73.70
8400;DHT22;4237;47.030;15.396;2023-02-19T10:30:32;32.00;72.40
8400;DHT22;4237;47.030;15.396;2023-02-19T10:33:10;31.50;71.70
8400;DHT22;4237;47.030;15.396;2023-02-19T10:36:00;29.80;73.50
8400;DHT22;4237;47.030;15.396;2023-02-19T10:38:34;29.90;75.90
8400;DHT22;4237;47.030;15.396;2023-02-19T10:41:15;30.00;75.80
8400;DHT22;4237;47.030;15.396;2023-02-19T10:44:01;30.60;73.60
8400;DHT22;4237;47.030;15.396;2023-02-19T10:46:30;28.50;73.80
8400;DHT22;4237;47.030;15.396;2023-02-19T10:49:06;26.80;82.30
8400;DHT22;4237;47.030;15.396;2023-02-19T10:51:38;25.00;86.50
8400;DHT22;4237;47.030;15.396;2023-02-19T10:54:27;24.90;87.90
8400;DHT22;4237;47.030;15.396;2023-02-19T10:59:52;27.30;82.20
8400;DHT22;4237;47.030;15.396;2023-02-19T11:02:26;25.40;83.50
8400;DHT22;4237;47.030;15.396;2023-02-19T11:12:59;25.70;87.90
8400;DHT22;4237;47.030;15.396;2023-02-19T11:15:31;25.20;88.90
8400;DHT22;4237;47.030;15.396;2023-02-19T11:20:54;26.60;86.00
8400;DHT22;4237;47.030;15.396;2023-02-19T11:23:26;26.90;82.20
8400;DHT22;4237;47.030;15.396;2023-02-19T11:25:58;24.60;88.80
8400;DHT22;4237;47.030;15.396;2023-02-19T11:28:34;25.00;91.30
8400;DHT22;4237;47.030;15.396;2023-02-19T11:34:00;28.80;82.60
8400;DHT22;4237;47.030;15.396;2023-02-19T11:36:31;31.00;74.80
8400;DHT22;4237;47.030;15.396;2023-02-19T11:44:44;34.10;67.10
8400;DHT22;4237;47.030;15.396;2023-02-19T11:53:29;35.00;63.70
8400;DHT22;4237;47.030;15.396;2023-02-19T12:01:52;35.50;58.40
8400;DHT22;4237;47.030;15.396;2023-02-19T12:04:48;34.60;57.20
8400;DHT22;4237;47.030;15.396;2023-02-19T12:10:24;30.60;58.60
8400;DHT22;4237;47.030;15.396;2023-02-19T12:15:38;29.80;60.30
8400;DHT22;4237;47.030;15.396;2023-02-19T12:18:32;28.70;60.80
8400;DHT22;4237;47.030;15.396;2023-02-19T12:29:35;27.50;59.80
8400;DHT22;4237;47.030;15.396;2023-02-19T12:43:23;29.40;56.50
8400;DHT22;4237;47.030;15.396;2023-02-19T12:46:37;31.50;56.30
8400;DHT22;4237;47.030;15.396;2023-02-19T12:48:44;32.50;55.80
8400;DHT22;4237;47.030;15.396;2023-02-19T12:51:34;31.90;54.70
8400;DHT22;4237;47.030;15.396;2023-02-19T12:54:05;32.80;53.90
8400;DHT22;4237;47.030;15.396;2023-02-19T13:02:14;32.00;55.90
8400;DHT22;4237;47.030;15.396;2023-02-19T13:04:48;31.40;55.70
8400;DHT22;4237;47.030;15.396;2023-02-19T13:10:17;30.20;57.30
8400;DHT22;4237;47.030;15.396;2023-02-19T13:12:42;28.90;58.50
8400;DHT22;4237;47.030;15.396;2023-02-19T13:15:14;27.90;60.10
8400;DHT22;4237;47.030;15.396;2023-02-19T13:17:48;27.70;61.70
8400;DHT22;4237;47.030;15.396;2023-02-19T13:22:59;26.80;64.10
8400;DHT22;4237;47.030;15.396;2023-02-19T13:37:36;26.60;68.10
8400;DHT22;4237;47.030;15.396;2023-02-19T13:40:17;26.60;67.90
8400;DHT22;4237;47.030;15.396;2023-02-19T13:42:36;26.30;67.80
8400;DHT22;4237;47.030;15.396;2023-02-19T13:45:05;24.50;70.30
8400;DHT22;4237;47.030;15.396;2023-02-19T13:47:57;22.10;78.90
8400;DHT22;4237;47.030;15.396;2023-02-19T13:50:26;21.10;82.60
8400;DHT22;4237;47.030;15.396;2023-02-19T13:52:52;20.10;85.40
8400;DHT22;4237;47.030;15.396;2023-02-19T13:58:35;19.50;91.40
8400;DHT22;4237;47.030;15.396;2023-02-19T14:01:08;19.70;92.00
8400;DHT22;4237;47.030;15.396;2023-02-19T14:06:14;22.10;86.40
8400;DHT22;4237;47.030;15.396;2023-02-19T14:08:56;22.70;82.80
8400;DHT22;4237;47.030;15.396;2023-02-19T14:14:27;22.90;81.10
8400;DHT22;4237;47.030;15.396;2023-02-19T14:17:00;22.90;81.50
8400;DHT22;4237;47.030;15.396;2023-02-19T14:19:49;22.90;82.00
8400;DHT22;4237;47.030;15.396;2023-02-19T14:25:40;22.10;84.70
8400;DHT22;4237;47.030;15.396;2023-02-19T14:31:14;22.60;81.70
8400;DHT22;4237;47.030;15.396;2023-02-19T14:33:43;22.20;84.30
8400;DHT22;4237;47.030;15.396;2023-02-19T14:39:04;21.60;86.10
8400;DHT22;4237;47.030;15.396;2023-02-19T14:41:39;21.30;85.80
8400;DHT22;4237;47.030;15.396;2023-02-19T14:44:15;21.40;85.30
8400;DHT22;4237;47.030;15.396;2023-02-19T14:46:44;21.00;85.50
8400;DHT22;4237;47.030;15.396;2023-02-19T14:49:14;21.10;84.50
8400;DHT22;4237;47.030;15.396;2023-02-19T14:51:49;20.90;86.00
8400;DHT22;4237;47.030;15.396;2023-02-19T14:57:31;21.30;85.30
8400;DHT22;4237;47.030;15.396;2023-02-19T15:00:04;21.00;84.50
8400;DHT22;4237;47.030;15.396;2023-02-19T15:02:40;20.50;86.30
8400;DHT22;4237;47.030;15.396;2023-02-19T15:05:13;19.40;89.10
8400;DHT22;4237;47.030;15.396;2023-02-19T15:07:37;19.60;90.40
8400;DHT22;4237;47.030;15.396;2023-02-19T15:10:07;19.40;90.90
8400;DHT22;4237;47.030;15.396;2023-02-19T15:12:52;19.20;91.10
8400;DHT22;4237;47.030;15.396;2023-02-19T15:15:29;19.10;90.40
8400;DHT22;4237;47.030;15.396;2023-02-19T15:17:53;18.80;90.80
8400;DHT22;4237;47.030;15.396;2023-02-19T15:20:27;18.40;91.20
8400;DHT22;4237;47.030;15.396;2023-02-19T15:22:58;18.30;91.70
8400;DHT22;4237;47.030;15.396;2023-02-19T15:25:32;18.40;92.00
8400;DHT22;4237;47.030;15.396;2023-02-19T15:33:32;17.70;92.20
8400;DHT22;4237;47.030;15.396;2023-02-19T15:36:06;17.60;92.40
8400;DHT22;4237;47.030;15.396;2023-02-19T15:38:36;17.80;92.50
8400;DHT22;4237;47.030;15.396;2023-02-19T15:41:06;17.60;92.70
8400;DHT22;4237;47.030;15.396;2023-02-19T15:43:43;17.40;93.00
8400;DHT22;4237;47.030;15.396;2023-02-19T15:46:21;17.20;93.20
8400;DHT22;4237;47.030;15.396;2023-02-19T15:49:01;16.90;93.40
8400;DHT22;4237;47.030;15.396;2023-02-19T15:51:40;16.20;94.20
8400;DHT22;4237;47.030;15.396;2023-02-19T15:54:20;15.20;96.30
8400;DHT22;4237;47.030;15.396;2023-02-19T15:56:42;14.60;98.10
8400;DHT22;4237;47.030;15.396;2023-02-19T15:59:18;14.10;98.70
8400;DHT22;4237;47.030;15.396;2023-02-19T16:01:48;13.80;99.50
8400;DHT22;4237;47.030;15.396;2023-02-19T16:04:18;13.60;99.90
8400;DHT22;4237;47.030;15.396;2023-02-19T16:06:55;13.40;99.90
8400;DHT22;4237;47.030;15.396;2023-02-19T16:09:32;13.20;99.90
8400;DHT22;4237;47.030;15.396;2023-02-19T16:12:02;13.10;99.90
8400;DHT22;4237;47.030;15.396;2023-02-19T16:14:36;12.90;99.90
8400;DHT22;4237;47.030;15.396;2023-02-19T16:17:15;12.70;99.90
8400;DHT22;4237;47.030;15.396;2023-02-19T16:19:46;12.60;99.90
8400;DHT22;4237;47.030;15.396;2023-02-19T16:22:23;12.60;99.90
8400;DHT22;4237;47.030;15.396;2023-02-19T16:24:55;12.50;99.90
8400;DHT22;4237;47.030;15.396;2023-02-19T16:27:33;12.40;99.90
8400;DHT22;4237;47.030;15.396;2023-02-19T16:30:06;12.40;99.90
8400;DHT22;4237;47.030;15.396;2023-02-19T16:32:36;12.30;99.90
8400;DHT22;4237;47.030;15.396;2023-02-19T16:35:26;12.20;99.90
8400;DHT22;4237;47.030;15.396;2023-02-19T16:37:54;12.20;99.90
8400;DHT22;4237;47.030;15.396;2023-02-19T16:45:22;11.80;99.90
8400;DHT22;4237;47.030;15.396;2023-02-19T16:47:52;11.70;99.90
8400;DHT22;4237;47.030;15.396;2023-02-19T16:50:24;11.60;99.90
8400;DHT22;4237;47.030;15.396;2023-02-19T16:52:57;11.50;99.90
8400;DHT22;4237;47.030;15.396;2023-02-19T16:55:27;11.60;99.90
8400;DHT22;4237;47.030;15.396;2023-02-19T16:57:59;11.50;99.90
8400;DHT22;4237;47.030;15.396;2023-02-19T17:00:29;11.30;99.90
8400;DHT22;4237;47.030;15.396;2023-02-19T17:03:01;11.10;99.90
8400;DHT22;4237;47.030;15.396;2023-02-19T17:05:33;11.10;99.90
8400;DHT22;4237;47.030;15.396;2023-02-19T17:08:12;10.90;99.90
8400;DHT22;4237;47.030;15.396;2023-02-19T17:10:36;10.90;99.90
8400;DHT22;4237;47.030;15.396;2023-02-19T17:13:07;10.90;99.90
8400;DHT22;4237;47.030;15.396;2023-02-19T17:15:36;11.10;99.90
8400;DHT22;4237;47.030;15.396;2023-02-19T17:18:08;11.10;99.90
8400;DHT22;4237;47.030;15.396;2023-02-19T17:20:40;11.10;99.90
8400;DHT22;4237;47.030;15.396;2023-02-19T17:23:10;10.90;99.90
8400;DHT22;4237;47.030;15.396;2023-02-19T17:25:39;10.70;99.90
8400;DHT22;4237;47.030;15.396;2023-02-19T17:28:09;10.60;99.90
8400;DHT22;4237;47.030;15.396;2023-02-19T17:30:39;10.60;99.90
8400;DHT22;4237;47.030;15.396;2023-02-19T17:33:09;11.00;99.90
8400;DHT22;4237;47.030;15.396;2023-02-19T17:35:43;11.00;99.90
8400;DHT22;4237;47.030;15.396;2023-02-19T17:38:14;11.00;99.90
8400;DHT22;4237;47.030;15.396;2023-02-19T17:40:44;10.90;99.90
8400;DHT22;4237;47.030;15.396;2023-02-19T17:43:13;10.90;99.90
8400;DHT22;4237;47.030;15.396;2023-02-19T17:45:42;10.90;99.90
8400;DHT22;4237;47.030;15.396;2023-02-19T17:48:14;11.00;99.90
8400;DHT22;4237;47.030;15.396;2023-02-19T17:50:44;11.00;99.90
8400;DHT22;4237;47.030;15.396;2023-02-19T17:53:18;11.00;99.90
8400;DHT22;4237;47.030;15.396;2023-02-19T17:55:48;11.20;99.90
8400;DHT22;4237;47.030;15.396;2023-02-19T17:58:17;11.20;99.90
8400;DHT22;4237;47.030;15.396;2023-02-19T18:00:48;11.20;99.90
8400;DHT22;4237;47.030;15.396;2023-02-19T18:03:18;11.20;99.90
8400;DHT22;4237;47.030;15.396;2023-02-19T18:05:47;11.20;99.90
8400;DHT22;4237;47.030;15.396;2023-02-19T18:08:18;11.20;99.90
8400;DHT22;4237;47.030;15.396;2023-02-19T18:10:48;11.20;99.90
8400;DHT22;4237;47.030;15.396;2023-02-19T18:13:18;11.20;99.90
8400;DHT22;4237;47.030;15.396;2023-02-19T18:15:47;11.30;99.90
8400;DHT22;4237;47.030;15.396;2023-02-19T18:18:20;11.30;99.90
8400;DHT22;4237;47.030;15.396;2023-02-19T18:20:49;11.30;99.90
8400;DHT22;4237;47.030;15.396;2023-02-19T18:23:20;11.20;99.90
8400;DHT22;4237;47.030;15.396;2023-02-19T18:25:49;11.20;99.90
8400;DHT22;4237;47.030;15.396;2023-02-19T18:28:19;11.20;99.90
8400;DHT22;4237;47.030;15.396;2023-02-19T18:30:50;11.20;99.90
8400;DHT22;4237;47.030;15.396;2023-02-19T18:33:20;11.30;99.90